Time;durP1;ratioP1;P1;durP2;ratioP2;P2;SDS_P1;SDS_P2;PMS_P1;PMS_P2;Temp;Humidity;BMP_temperature;BMP_pressure;BME280_temperature;BME280_humidity;BME280_pressure;Samples;Min_cycle;Max_cycle;Signal;HPM_P1;HPM_P2
2023/06/29 00:01:00;;;;;;;3.95;2.33;;;21.50;70.00;;;;;;5044068;28;20055;-81
2023/06/29 00:03:27;;;;;;;3.60;2.53;;;21.50;70.10;;;;;;5050653;28;20457;-81
2023/06/29 00:05:57;;;;;;;3.45;2.40;;;21.50;70.20;;;;;;5042450;28;20039;-81
2023/06/29 00:08:24;;;;;;;3.97;2.65;;;21.40;70.00;;;;;;5042971;28;20036;-81
2023/06/29 00:10:52;;;;;;;4.50;2.70;;;21.50;70.20;;;;;;5050357;28;20044;-82
2023/06/29 00:13:19;;;;;;;1.92;1.50;;;21.40;69.90;;;;;;5056322;28;20040;-81
2023/06/29 00:15:47;;;;;;;2.42;1.60;;;21.40;69.80;;;;;;5048934;28;20045;-81
2023/06/29 00:18:13;;;;;;;1.73;1.40;;;21.40;69.60;;;;;;5022972;28;20401;-82
2023/06/29 00:20:44;;;;;;;1.77;1.42;;;21.40;69.50;;;;;;5028409;28;20041;-83
2023/06/29 00:23:10;;;;;;;2.72;1.38;;;21.40;69.40;;;;;;5056985;28;20024;-84
2023/06/29 00:25:38;;;;;;;2.15;1.20;;;21.30;69.20;;;;;;5046339;28;20187;-83
2023/06/29 00:28:05;;;;;;;1.98;1.13;;;21.30;69.10;;;;;;5040047;28;20291;-83
2023/06/29 00:30:31;;;;;;;1.48;1.23;;;21.30;69.00;;;;;;5049145;28;20047;-84
2023/06/29 00:32:58;;;;;;;1.65;1.02;;;21.30;69.00;;;;;;5047481;28;20048;-83
2023/06/29 00:35:24;;;;;;;1.90;1.15;;;21.20;68.80;;;;;;5035873;28;20106;-84
2023/06/29 00:37:50;;;;;;;1.67;0.73;;;21.20;68.80;;;;;;5041269;28;20033;-83
2023/06/29 00:40:16;;;;;;;1.10;0.80;;;21.20;68.80;;;;;;5032763;28;20135;-83
2023/06/29 00:42:42;;;;;;;0.95;0.90;;;21.20;68.80;;;;;;5056743;28;20385;-84
2023/06/29 00:45:10;;;;;;;1.30;0.90;;;21.20;68.80;;;;;;5034783;28;20078;-83
2023/06/29 00:47:37;;;;;;;1.42;0.90;;;21.20;68.70;;;;;;5029966;28;20036;-83
2023/06/29 00:50:05;;;;;;;1.38;1.08;;;21.10;68.60;;;;;;5039152;28;20486;-82
2023/06/29 00:52:31;;;;;;;0.95;0.80;;;21.10;68.70;;;;;;5026944;28;20487;-83
2023/06/29 00:54:58;;;;;;;0.85;0.63;;;21.10;68.70;;;;;;5045899;28;20031;-82
2023/06/29 00:57:24;;;;;;;0.95;0.90;;;21.00;68.60;;;;;;5051286;28;20021;-82
2023/06/29 00:59:50;;;;;;;1.23;0.90;;;21.00;68.70;;;;;;5035953;28;20575;-82
2023/06/29 01:02:17;;;;;;;5.07;1.02;;;21.00;68.80;;;;;;5039869;28;20094;-83
2023/06/29 01:04:45;;;;;;;1.17;1.08;;;21.00;68.90;;;;;;5044992;28;20601;-82
2023/06/29 01:07:39;;;;;;;1.10;1.10;;;20.90;69.30;;;;;;5051210;28;20045;-80
2023/06/29 01:10:09;;;;;;;1.08;0.90;;;20.90;68.90;;;;;;5044404;28;20478;-82
2023/06/29 01:12:36;;;;;;;1.27;0.93;;;20.90;68.90;;;;;;5031963;28;20051;-81
2023/06/29 01:15:04;;;;;;;1.73;0.95;;;20.80;68.80;;;;;;5025950;28;20524;-81
2023/06/29 01:17:31;;;;;;;1.88;1.23;;;20.80;68.90;;;;;;5027202;28;20037;-82
2023/06/29 01:19:58;;;;;;;1.40;1.10;;;20.80;69.00;;;;;;5045694;28;20207;-84
2023/06/29 01:22:31;;;;;;;1.33;1.08;;;20.70;69.00;;;;;;5033507;28;20401;-82
2023/06/29 01:24:59;;;;;;;1.00;0.93;;;20.70;69.10;;;;;;5050378;28;20036;-82
2023/06/29 01:27:27;;;;;;;1.20;1.10;;;20.70;69.20;;;;;;5034738;28;20391;-81
2023/06/29 01:29:57;;;;;;;1.20;1.10;;;20.60;69.10;;;;;;5038865;28;20031;-81
2023/06/29 01:32:34;;;;;;;1.48;1.17;;;20.60;69.20;;;;;;5056460;28;20048;-82
2023/06/29 01:35:02;;;;;;;1.13;1.02;;;20.60;69.30;;;;;;5056728;28;20044;-81
2023/06/29 01:37:45;;;;;;;1.10;0.98;;;20.50;69.20;;;;;;5058204;28;20044;-83
2023/06/29 01:40:17;;;;;;;1.42;1.10;;;20.50;69.40;;;;;;5047219;28;20037;-82
2023/06/29 01:42:47;;;;;;;;;;;20.50;69.50;;;;;;5047752;28;20029;-81
2023/06/29 01:45:15;;;;;;;1.40;1.02;;;20.50;69.40;;;;;;5054827;28;19924;-82
2023/06/29 01:47:41;;;;;;;2.90;1.45;;;20.50;69.30;;;;;;5026362;28;20074;-82
2023/06/29 01:50:09;;;;;;;1.35;1.25;;;20.40;69.20;;;;;;5046182;28;20084;-80
2023/06/29 01:52:37;;;;;;;2.17;1.42;;;20.40;69.30;;;;;;5048522;28;20052;-79
2023/06/29 01:55:04;;;;;;;1.27;0.90;;;20.40;69.40;;;;;;5056103;28;20450;-81
2023/06/29 01:57:31;;;;;;;1.50;1.40;;;20.40;69.50;;;;;;5050676;28;20594;-80
2023/06/29 01:59:57;;;;;;;3.35;1.58;;;20.40;69.60;;;;;;5041106;28;20037;-80
2023/06/29 02:02:26;;;;;;;1.23;1.13;;;20.30;69.50;;;;;;5037891;28;20908;-80
2023/06/29 02:04:53;;;;;;;2.10;1.67;;;20.30;69.60;;;;;;5049650;28;20112;-81
2023/06/29 02:07:19;;;;;;;2.05;1.50;;;20.30;69.70;;;;;;5048675;28;20029;-80
2023/06/29 02:09:55;;;;;;;1.35;1.25;;;20.20;69.60;;;;;;5027695;28;20560;-80
2023/06/29 02:12:22;;;;;;;1.75;1.35;;;20.20;69.60;;;;;;5045978;28;20533;-80
2023/06/29 02:14:49;;;;;;;1.75;1.58;;;20.20;69.70;;;;;;5045521;28;20466;-81
2023/06/29 02:17:17;;;;;;;1.35;1.25;;;20.20;69.80;;;;;;5048194;28;20396;-80
2023/06/29 02:19:43;;;;;;;2.35;1.25;;;20.20;69.90;;;;;;5044947;28;20055;-80
2023/06/29 02:22:09;;;;;;;3.63;1.77;;;20.20;70.00;;;;;;5049945;28;20436;-80
2023/06/29 02:24:35;;;;;;;2.92;1.77;;;20.10;69.80;;;;;;5049333;28;20088;-80
2023/06/29 02:27:02;;;;;;;2.03;1.40;;;20.10;69.90;;;;;;5062391;28;20062;-80
2023/06/29 02:29:29;;;;;;;1.90;1.40;;;20.10;69.90;;;;;;5048387;28;20020;-80
2023/06/29 02:31:55;;;;;;;2.25;1.10;;;20.10;70.00;;;;;;5057876;28;20047;-81
2023/06/29 02:34:22;;;;;;;2.30;1.35;;;20.10;70.10;;;;;;5045173;28;20663;-80
2023/06/29 02:36:49;;;;;;;1.73;1.35;;;20.00;70.00;;;;;;5034306;28;20473;-80
2023/06/29 02:39:16;;;;;;;2.17;1.60;;;20.00;70.10;;;;;;5048596;28;20090;-81
2023/06/29 02:41:42;;;;;;;2.75;1.20;;;20.00;70.20;;;;;;5048852;28;20044;-81
2023/06/29 02:44:09;;;;;;;3.00;1.23;;;20.00;70.20;;;;;;5048359;28;20036;-80
2023/06/29 02:46:35;;;;;;;1.40;1.30;;;20.00;70.30;;;;;;5035580;28;20400;-80
2023/06/29 02:49:01;;;;;;;1.63;1.17;;;19.90;70.10;;;;;;5046071;28;20055;-80
2023/06/29 02:51:27;;;;;;;2.53;1.30;;;19.90;70.20;;;;;;5053562;28;20032;-80
2023/06/29 02:54:00;;;;;;;1.83;0.95;;;19.90;70.20;;;;;;5046366;28;20361;-80
2023/06/29 02:56:26;;;;;;;1.70;0.90;;;19.90;70.20;;;;;;5065137;28;20029;-81
2023/06/29 02:58:52;;;;;;;1.25;1.13;;;19.90;70.30;;;;;;5047297;28;20024;-81
2023/06/29 03:01:23;;;;;;;2.75;0.95;;;19.90;70.30;;;;;;5048628;28;20032;-81
2023/06/29 03:03:49;;;;;;;2.22;0.88;;;19.80;70.10;;;;;;5021648;28;20036;-81
2023/06/29 03:06:15;;;;;;;1.48;1.10;;;19.80;70.20;;;;;;5049197;28;20039;-81
2023/06/29 03:08:41;;;;;;;2.90;1.27;;;19.80;70.20;;;;;;5045968;28;20149;-82
2023/06/29 03:11:07;;;;;;;1.90;1.30;;;19.80;70.20;;;;;;5028638;28;20047;-81
2023/06/29 03:13:33;;;;;;;1.50;0.98;;;19.80;70.20;;;;;;5051336;28;20394;-80
2023/06/29 03:16:01;;;;;;;2.05;1.05;;;19.70;70.00;;;;;;5050781;28;20048;-80
2023/06/29 03:18:27;;;;;;;1.05;0.95;;;19.70;70.10;;;;;;5045472;28;20582;-80
2023/06/29 03:20:53;;;;;;;0.98;0.80;;;19.70;70.10;;;;;;5045215;28;20056;-79
2023/06/29 03:23:19;;;;;;;1.17;1.00;;;19.70;70.10;;;;;;5046558;28;20515;-79
2023/06/29 03:25:45;;;;;;;1.10;1.00;;;19.60;70.00;;;;;;5058534;28;20116;-79
2023/06/29 03:28:11;;;;;;;2.60;1.13;;;19.60;70.00;;;;;;5054310;28;20178;-80
2023/06/29 03:30:37;;;;;;;1.10;0.90;;;19.60;70.10;;;;;;5052580;28;20211;-81
2023/06/29 03:33:03;;;;;;;0.77;0.68;;;19.60;70.00;;;;;;5053801;28;20400;-81
2023/06/29 03:35:29;;;;;;;1.05;0.90;;;19.60;70.00;;;;;;5059688;28;20041;-81
2023/06/29 03:37:55;;;;;;;0.95;0.80;;;19.50;69.80;;;;;;5058641;28;20025;-80
2023/06/29 03:40:21;;;;;;;0.95;0.70;;;19.50;69.80;;;;;;5045251;28;20048;-80
2023/06/29 03:42:47;;;;;;;1.25;1.05;;;19.50;69.80;;;;;;5031446;28;20443;-81
2023/06/29 03:45:12;;;;;;;1.42;0.90;;;19.50;69.70;;;;;;5048548;28;20484;-80
2023/06/29 03:47:38;;;;;;;2.40;0.95;;;19.40;69.50;;;;;;5027070;28;20032;-81
2023/06/29 03:50:05;;;;;;;1.08;0.77;;;19.40;69.50;;;;;;5050854;28;20503;-80
2023/06/29 03:52:31;;;;;;;2.70;0.95;;;19.40;69.40;;;;;;5046485;28;20483;-80
2023/06/29 03:54:57;;;;;;;0.90;0.73;;;19.40;69.40;;;;;;5048735;28;20052;-80
2023/06/29 03:57:23;;;;;;;1.48;0.90;;;19.40;69.40;;;;;;5046408;28;20025;-80
2023/06/29 03:59:49;;;;;;;1.10;1.00;;;19.30;69.20;;;;;;5057103;28;20036;-80
2023/06/29 04:02:15;;;;;;;3.42;1.27;;;19.30;69.10;;;;;;5049441;28;20493;-81
2023/06/29 04:04:41;;;;;;;0.60;0.60;;;19.30;69.10;;;;;;5050692;28;20055;-81
2023/06/29 04:07:06;;;;;;;1.17;0.70;;;19.30;69.10;;;;;;5030190;28;20039;-81
2023/06/29 04:09:32;;;;;;;0.90;0.65;;;19.20;68.80;;;;;;5027311;28;20126;-81
2023/06/29 04:11:58;;;;;;;2.03;1.05;;;19.30;68.90;;;;;;5045959;28;20049;-80
2023/06/29 04:14:24;;;;;;;1.67;1.10;;;19.20;68.70;;;;;;5028142;28;20040;-81
2023/06/29 04:16:50;;;;;;;1.00;0.70;;;19.20;68.70;;;;;;5045670;28;20025;-80
2023/06/29 04:19:16;;;;;;;2.60;0.73;;;19.10;68.50;;;;;;5053366;28;20032;-82
2023/06/29 04:21:41;;;;;;;1.00;0.70;;;19.20;68.70;;;;;;5035386;28;20119;-82
2023/06/29 04:24:07;;;;;;;0.82;0.80;;;19.10;68.50;;;;;;5044135;28;20101;-81
2023/06/29 04:26:35;;;;;;;1.38;1.00;;;19.10;68.40;;;;;;5045788;28;20063;-80
2023/06/29 04:29:02;;;;;;;0.68;0.50;;;19.10;68.40;;;;;;5056899;28;20082;-80
2023/06/29 04:31:29;;;;;;;1.77;0.90;;;19.10;68.30;;;;;;5042389;28;20147;-80
2023/06/29 04:33:58;;;;;;;1.27;0.68;;;19.00;68.20;;;;;;5053658;28;20029;-80
2023/06/29 04:36:25;;;;;;;0.75;0.75;;;19.00;68.10;;;;;;5059309;28;20482;-80
2023/06/29 04:38:51;;;;;;;1.13;0.73;;;19.00;68.10;;;;;;5052115;28;20020;-81
2023/06/29 04:41:17;;;;;;;1.70;0.60;;;19.00;68.00;;;;;;5027323;28;20131;-82
2023/06/29 04:43:47;;;;;;;0.77;0.60;;;19.00;68.00;;;;;;5046917;28;20036;-81
2023/06/29 04:46:14;;;;;;;1.27;0.60;;;19.00;67.90;;;;;;5046967;28;20040;-82
2023/06/29 04:48:40;;;;;;;1.40;0.60;;;19.00;67.90;;;;;;5058323;28;20029;-80
2023/06/29 04:51:06;;;;;;;2.15;0.98;;;19.00;67.80;;;;;;5051154;28;20533;-80
2023/06/29 04:53:35;;;;;;;1.42;0.70;;;19.00;67.80;;;;;;5041286;28;20067;-81
2023/06/29 04:56:04;;;;;;;1.08;0.63;;;19.00;67.80;;;;;;5034303;28;20383;-82
2023/06/29 04:58:30;;;;;;;0.60;0.60;;;19.00;67.60;;;;;;5045477;28;20504;-80
2023/06/29 05:00:56;;;;;;;1.10;0.75;;;19.00;67.60;;;;;;5047650;28;20048;-80
2023/06/29 05:03:24;;;;;;;1.23;0.75;;;19.00;67.50;;;;;;5041129;28;20033;-81
2023/06/29 05:05:50;;;;;;;1.50;0.70;;;19.10;67.60;;;;;;5050496;28;20036;-81
2023/06/29 05:08:16;;;;;;;1.27;1.00;;;19.10;67.50;;;;;;5048230;28;20028;-81
2023/06/29 05:10:42;;;;;;;0.93;0.80;;;19.10;67.30;;;;;;5054173;28;20145;-81
2023/06/29 05:13:08;;;;;;;0.93;0.63;;;19.20;67.90;;;;;;5049273;28;20029;-79
2023/06/29 05:15:34;;;;;;;0.68;0.65;;;19.20;67.20;;;;;;5029655;28;20460;-81
2023/06/29 05:18:00;;;;;;;0.70;0.63;;;19.30;67.20;;;;;;5041428;28;20106;-83
2023/06/29 05:20:26;;;;;;;1.95;0.60;;;19.40;67.20;;;;;;5030516;28;20394;-79
2023/06/29 05:22:52;;;;;;;3.58;1.42;;;19.40;67.10;;;;;;5041101;28;20021;-79
2023/06/29 05:25:18;;;;;;;1.95;0.60;;;19.50;67.50;;;;;;5042603;28;20322;-79
2023/06/29 05:27:44;;;;;;;0.93;0.50;;;19.60;68.00;;;;;;5049470;28;20060;-79
2023/06/29 05:30:10;;;;;;;2.40;0.60;;;19.70;68.30;;;;;;5037805;28;20119;-82
2023/06/29 05:32:37;;;;;;;1.30;0.70;;;19.80;68.60;;;;;;5038575;28;20057;-82
2023/06/29 05:35:03;;;;;;;1.30;0.90;;;19.80;68.60;;;;;;5048185;28;20025;-82
2023/06/29 05:37:30;;;;;;;1.50;0.88;;;20.00;69.00;;;;;;5033462;28;20029;-81
2023/06/29 05:39:58;;;;;;;0.90;0.73;;;20.00;68.90;;;;;;5037043;28;20052;-82
2023/06/29 05:42:24;;;;;;;1.23;1.00;;;20.10;69.10;;;;;;5043840;28;20033;-81
2023/06/29 05:44:52;;;;;;;2.22;0.85;;;20.20;69.10;;;;;;5050429;28;20044;-81
2023/06/29 05:47:20;;;;;;;1.63;0.88;;;20.30;69.10;;;;;;5036274;28;20033;-79
2023/06/29 05:49:46;;;;;;;1.23;0.60;;;20.30;68.90;;;;;;5046468;28;20558;-80
2023/06/29 05:52:12;;;;;;;1.23;0.73;;;20.40;69.00;;;;;;5051199;28;20105;-82
2023/06/29 05:54:38;;;;;;;1.33;0.80;;;20.40;69.00;;;;;;5045231;28;20059;-80
2023/06/29 05:57:04;;;;;;;0.85;0.80;;;20.40;68.90;;;;;;5049765;28;20263;-80
2023/06/29 05:59:30;;;;;;;1.27;0.63;;;20.50;68.70;;;;;;5047683;28;20154;-79
2023/06/29 06:01:56;;;;;;;1.40;0.65;;;20.70;68.60;;;;;;5043694;28;20037;-78
2023/06/29 06:04:22;;;;;;;0.98;0.60;;;20.80;68.20;;;;;;5040067;28;20033;-81
2023/06/29 06:06:48;;;;;;;0.93;0.70;;;21.00;68.00;;;;;;5031984;28;20050;-80
2023/06/29 06:09:14;;;;;;;1.15;0.73;;;21.10;67.60;;;;;;5042735;28;20082;-80
2023/06/29 06:11:40;;;;;;;1.00;0.70;;;21.30;67.30;;;;;;5052256;28;20256;-77
2023/06/29 06:14:06;;;;;;;1.08;0.77;;;21.40;66.90;;;;;;5048199;28;20033;-80
2023/06/29 06:16:32;;;;;;;1.17;0.70;;;21.60;66.70;;;;;;5039864;28;20032;-81
2023/06/29 06:18:58;;;;;;;1.85;0.85;;;21.80;66.40;;;;;;5050394;28;20457;-83
2023/06/29 06:21:24;;;;;;;2.55;0.80;;;21.90;66.00;;;;;;5055610;28;20566;-84
2023/06/29 06:23:52;;;;;;;0.63;0.60;;;22.00;65.70;;;;;;5038401;28;20538;-81
2023/06/29 06:26:18;;;;;;;4.68;1.05;;;22.20;65.40;;;;;;5038953;28;20155;-80
2023/06/29 06:28:44;;;;;;;2.20;0.63;;;22.40;65.30;;;;;;5022649;28;20032;-80
2023/06/29 06:31:10;;;;;;;2.33;0.75;;;22.60;65.00;;;;;;5019662;28;20374;-80
2023/06/29 06:33:36;;;;;;;1.13;1.00;;;22.80;64.70;;;;;;5045307;28;20047;-79
2023/06/29 06:36:03;;;;;;;0.63;0.60;;;23.10;64.40;;;;;;5048098;28;20044;-80
2023/06/29 06:38:30;;;;;;;1.77;0.70;;;23.40;64.00;;;;;;5032524;28;20491;-80
2023/06/29 06:40:56;;;;;;;1.20;0.60;;;23.70;63.60;;;;;;5052312;28;20322;-80
2023/06/29 06:43:32;;;;;;;0.60;0.57;;;24.00;63.70;;;;;;5036221;28;20308;-81
2023/06/29 06:45:59;;;;;;;0.52;0.50;;;24.30;62.80;;;;;;5030056;28;20211;-80
2023/06/29 06:48:25;;;;;;;0.70;0.60;;;24.60;62.50;;;;;;5045986;28;20033;-80
2023/06/29 06:50:54;;;;;;;1.63;0.70;;;24.90;62.10;;;;;;5049518;28;20534;-79
2023/06/29 06:53:23;;;;;;;0.63;0.60;;;25.10;61.50;;;;;;5019954;28;20113;-79
2023/06/29 06:55:48;;;;;;;1.00;0.70;;;25.40;60.90;;;;;;5042002;28;20135;-80
2023/06/29 06:58:14;;;;;;;1.98;0.68;;;25.70;60.40;;;;;;5052190;28;20241;-81
2023/06/29 07:00:40;;;;;;;2.25;0.77;;;25.90;59.90;;;;;;5034178;28;20373;-79
2023/06/29 07:03:06;;;;;;;1.65;0.63;;;26.10;59.20;;;;;;5049266;28;20035;-79
2023/06/29 07:05:33;;;;;;;2.65;0.82;;;26.40;58.70;;;;;;5048158;28;20032;-81
2023/06/29 07:07:59;;;;;;;0.65;0.55;;;26.60;58.20;;;;;;5035095;28;20039;-81
2023/06/29 07:10:25;;;;;;;1.33;0.60;;;26.70;57.70;;;;;;5052770;28;20185;-80
2023/06/29 07:12:51;;;;;;;1.13;0.47;;;26.80;57.10;;;;;;5040977;28;20089;-78
2023/06/29 07:15:17;;;;;;;0.85;0.50;;;27.00;56.70;;;;;;5038379;28;20040;-80
2023/06/29 07:17:43;;;;;;;1.55;1.00;;;27.20;56.30;;;;;;5031915;28;20066;-80
2023/06/29 07:20:11;;;;;;;1.85;0.80;;;27.50;55.80;;;;;;5045066;28;20036;-79
2023/06/29 07:22:42;;;;;;;0.80;0.80;;;27.70;55.20;;;;;;5042048;28;20492;-79
2023/06/29 07:25:11;;;;;;;1.10;0.68;;;27.90;55.00;;;;;;5032448;28;20043;-77
2023/06/29 07:27:38;;;;;;;2.38;0.80;;;28.00;54.60;;;;;;5031929;28;20039;-78
2023/06/29 07:30:07;;;;;;;1.70;0.75;;;27.90;54.30;;;;;;5047639;28;20147;-79
2023/06/29 07:32:34;;;;;;;0.68;0.68;;;27.80;54.20;;;;;;5044950;28;20052;-79
2023/06/29 07:35:01;;;;;;;3.85;0.77;;;27.60;54.20;;;;;;5034348;28;20436;-79
2023/06/29 07:37:27;;;;;;;2.00;0.80;;;27.40;54.10;;;;;;5034212;28;20077;-78
2023/06/29 07:39:53;;;;;;;1.77;0.60;;;27.20;54.20;;;;;;5036781;28;20540;-79
2023/06/29 07:42:20;;;;;;;0.52;0.50;;;27.00;54.20;;;;;;5038874;28;20729;-78
2023/06/29 07:44:46;;;;;;;1.30;0.60;;;26.90;54.40;;;;;;5046966;28;20102;-79
2023/06/29 07:47:12;;;;;;;1.80;0.52;;;26.80;54.50;;;;;;5018622;28;20460;-80
2023/06/29 07:49:37;;;;;;;0.60;0.43;;;26.60;54.50;;;;;;5051446;28;20385;-80
2023/06/29 07:52:05;;;;;;;1.02;0.73;;;26.40;54.50;;;;;;5038856;28;20123;-79
2023/06/29 07:54:31;;;;;;;0.60;0.60;;;26.20;54.70;;;;;;5036599;28;20033;-81
2023/06/29 07:56:56;;;;;;;0.93;0.70;;;26.20;55.10;;;;;;5039964;28;20085;-80
2023/06/29 07:59:22;;;;;;;0.73;0.60;;;26.60;54.50;;;;;;5036720;28;20028;-89
2023/06/29 08:01:53;;;;;;;1.33;0.70;;;27.10;53.40;;;;;;5047219;28;20522;-85
2023/06/29 08:04:19;;;;;;;0.82;0.70;;;27.70;52.50;;;;;;5040374;28;20029;-81
2023/06/29 08:06:44;;;;;;;2.33;0.63;;;28.10;51.90;;;;;;5054844;28;20043;-82
2023/06/29 08:09:11;;;;;;;2.58;1.02;;;28.40;51.70;;;;;;5047972;28;20051;-80
2023/06/29 08:11:37;;;;;;;0.90;0.50;;;28.60;51.50;;;;;;5051067;28;20574;-83
2023/06/29 08:14:05;;;;;;;0.70;0.60;;;28.70;51.30;;;;;;5039818;28;20294;-82
2023/06/29 08:16:31;;;;;;;0.82;0.70;;;28.80;51.10;;;;;;5040512;28;20028;-82
2023/06/29 08:19:03;;;;;;;1.55;0.57;;;28.80;50.90;;;;;;5048774;28;20079;-81
2023/06/29 08:21:29;;;;;;;0.90;0.80;;;28.90;50.80;;;;;;5044938;28;20120;-80
2023/06/29 08:23:57;;;;;;;1.70;0.90;;;29.00;50.60;;;;;;5021499;28;20064;-81
2023/06/29 08:26:24;;;;;;;0.75;0.75;;;29.00;50.30;;;;;;5053949;28;20417;-83
2023/06/29 08:28:51;;;;;;;0.82;0.70;;;29.10;50.30;;;;;;5046386;28;20032;-81
2023/06/29 08:31:19;;;;;;;1.00;0.60;;;29.00;50.10;;;;;;5034711;28;20029;-80
2023/06/29 08:33:46;;;;;;;1.08;0.63;;;28.90;50.20;;;;;;5025648;28;20029;-86
2023/06/29 08:36:12;;;;;;;0.60;0.50;;;28.80;50.40;;;;;;5028377;28;20045;-81
2023/06/29 08:38:38;;;;;;;1.20;0.50;;;28.80;50.50;;;;;;5038203;28;20069;-86
2023/06/29 08:41:06;;;;;;;1.02;0.85;;;28.80;50.60;;;;;;5031380;28;20049;-82
2023/06/29 08:43:35;;;;;;;1.27;0.50;;;28.70;50.50;;;;;;5028079;28;20257;-83
2023/06/29 08:46:02;;;;;;;1.95;0.50;;;28.80;50.50;;;;;;5020936;28;20101;-82
2023/06/29 08:48:31;;;;;;;2.35;0.43;;;28.70;50.40;;;;;;5038209;28;20037;-83
2023/06/29 08:51:02;;;;;;;0.80;0.50;;;28.70;50.50;;;;;;5051979;28;20028;-84
2023/06/29 08:53:33;;;;;;;0.82;0.65;;;28.70;50.70;;;;;;5020202;28;20496;-83
2023/06/29 08:56:01;;;;;;;2.75;0.60;;;28.70;50.70;;;;;;5022074;28;20063;-85
2023/06/29 08:58:28;;;;;;;4.00;1.00;;;28.80;50.50;;;;;;5023462;28;20120;-83
2023/06/29 09:00:56;;;;;;;2.78;0.70;;;29.00;50.50;;;;;;5032505;28;20045;-83
2023/06/29 09:03:23;;;;;;;4.63;1.20;;;29.00;50.20;;;;;;5046334;28;20029;-85
2023/06/29 09:05:49;;;;;;;1.58;0.68;;;29.00;50.10;;;;;;5051800;28;20021;-85
2023/06/29 09:08:15;;;;;;;0.93;0.70;;;29.00;50.00;;;;;;5022555;28;20033;-88
2023/06/29 09:10:42;;;;;;;2.00;0.70;;;29.00;50.00;;;;;;5025239;28;20045;-90
2023/06/29 09:13:09;;;;;;;1.73;1.05;;;28.90;49.90;;;;;;5029517;28;20029;-82
2023/06/29 09:15:39;;;;;;;1.90;0.88;;;28.80;49.90;;;;;;5034098;28;20033;-82
2023/06/29 09:18:08;;;;;;;0.63;0.60;;;28.80;49.80;;;;;;5029489;28;20028;-82
2023/06/29 09:20:35;;;;;;;0.68;0.65;;;28.70;49.80;;;;;;5051721;28;20134;-83
2023/06/29 09:23:04;;;;;;;1.10;0.68;;;28.70;49.90;;;;;;5039130;28;20044;-83
2023/06/29 09:25:32;;;;;;;0.90;0.60;;;28.60;49.90;;;;;;5037047;28;20032;-83
2023/06/29 09:28:07;;;;;;;1.27;0.75;;;28.60;50.10;;;;;;5048584;28;20120;-85
2023/06/29 09:30:38;;;;;;;0.40;0.40;;;28.50;49.90;;;;;;5054388;28;20036;-82
2023/06/29 09:33:10;;;;;;;0.55;0.30;;;28.60;50.10;;;;;;5034627;28;20081;-83
2023/06/29 09:36:08;;;;;;;1.13;0.50;;;28.50;49.90;;;;;;4962793;28;20040;-80
2023/06/29 09:38:34;;;;;;;0.50;0.50;;;28.60;49.90;;;;;;5038157;28;20072;-80
2023/06/29 09:41:02;;;;;;;1.23;0.50;;;28.70;50.00;;;;;;4990513;28;20605;-79
2023/06/29 09:43:31;;;;;;;0.88;0.40;;;28.80;49.80;;;;;;5058533;28;20044;-79
2023/06/29 09:46:07;;;;;;;0.45;0.45;;;28.90;49.60;;;;;;5054494;28;20064;-80
2023/06/29 09:48:47;;;;;;;1.08;0.63;;;28.90;49.50;;;;;;5010152;28;20037;-79
2023/06/29 09:51:22;;;;;;;2.08;0.73;;;29.00;49.50;;;;;;5019904;28;20025;-81
2023/06/29 09:53:49;;;;;;;0.57;0.50;;;29.10;49.20;;;;;;5049478;28;20033;-81
2023/06/29 09:56:16;;;;;;;1.20;0.60;;;29.20;49.10;;;;;;5040089;28;20147;-81
2023/06/29 09:58:45;;;;;;;0.77;0.50;;;29.30;48.90;;;;;;5040030;28;20044;-84
2023/06/29 10:01:17;;;;;;;0.80;0.57;;;29.60;48.90;;;;;;5046107;28;20045;-82
2023/06/29 10:03:52;;;;;;;0.73;0.50;;;29.80;48.50;;;;;;5035533;28;20055;-81
2023/06/29 10:06:33;;;;;;;0.80;0.75;;;29.90;48.20;;;;;;5060080;28;20219;-82
2023/06/29 10:09:01;;;;;;;0.47;0.40;;;30.10;47.80;;;;;;5031974;28;20508;-80
2023/06/29 10:11:35;;;;;;;0.85;0.75;;;30.30;47.70;;;;;;5049982;28;20059;-80
2023/06/29 10:14:06;;;;;;;0.88;0.50;;;30.50;47.40;;;;;;5034687;28;20051;-81
2023/06/29 10:16:41;;;;;;;1.50;0.50;;;30.70;47.20;;;;;;5039974;28;20038;-80
2023/06/29 10:19:18;;;;;;;0.75;0.50;;;30.70;47.10;;;;;;5039432;28;20050;-81
2023/06/29 10:22:00;;;;;;;0.70;0.50;;;30.50;47.00;;;;;;5040189;28;20191;-81
2023/06/29 10:24:35;;;;;;;0.60;0.50;;;30.50;47.20;;;;;;5045163;28;20040;-82
2023/06/29 10:27:03;;;;;;;0.95;0.63;;;30.70;47.20;;;;;;5048481;28;20040;-83
2023/06/29 10:29:29;;;;;;;0.55;0.40;;;30.80;47.10;;;;;;5037837;28;20025;-80
2023/06/29 10:31:58;;;;;;;2.63;0.50;;;30.80;46.80;;;;;;5027715;28;20049;-85
2023/06/29 10:34:27;;;;;;;1.50;0.40;;;30.90;46.70;;;;;;5049776;28;20071;-85
2023/06/29 10:36:58;;;;;;;2.05;0.73;;;30.90;46.40;;;;;;5053663;28;20158;-83
2023/06/29 10:39:45;;;;;;;0.70;0.63;;;30.90;46.30;;;;;;5033934;28;20076;-84
2023/06/29 10:42:24;;;;;;;2.20;0.55;;;30.90;45.90;;;;;;5035888;28;20546;-86
2023/06/29 10:44:50;;;;;;;0.90;0.70;;;30.90;45.80;;;;;;5043352;28;20028;-85
2023/06/29 10:47:39;;;;;;;2.33;0.70;;;30.90;45.70;;;;;;5031782;28;20517;-84
2023/06/29 10:50:11;;;;;;;0.85;0.45;;;31.00;45.30;;;;;;5051196;28;20221;-85
2023/06/29 10:52:42;;;;;;;1.77;0.68;;;31.00;45.20;;;;;;5032643;28;20032;-84
2023/06/29 10:55:26;;;;;;;0.73;0.70;;;31.00;45.10;;;;;;5055366;28;20029;-85
2023/06/29 10:57:59;;;;;;;1.27;0.55;;;30.90;44.80;;;;;;5027588;28;20281;-85
2023/06/29 11:00:26;;;;;;;0.80;0.50;;;30.90;44.80;;;;;;5051222;28;20052;-85
2023/06/29 11:02:54;;;;;;;0.73;0.40;;;31.00;44.90;;;;;;5015610;28;20036;-85
2023/06/29 11:05:21;;;;;;;0.63;0.50;;;31.00;44.60;;;;;;5051392;28;20040;-85
2023/06/29 11:07:52;;;;;;;0.80;0.70;;;31.10;44.50;;;;;;5044715;28;20544;-84
2023/06/29 11:10:20;;;;;;;1.33;0.50;;;31.20;44.20;;;;;;5041301;28;20096;-86
2023/06/29 11:12:48;;;;;;;0.50;0.50;;;31.20;44.00;;;;;;5051308;28;20709;-85
2023/06/29 11:15:19;;;;;;;2.38;0.70;;;31.30;43.80;;;;;;5046818;28;20525;-86
2023/06/29 11:17:48;;;;;;;0.88;0.75;;;31.40;43.80;;;;;;5044831;28;20043;-87
2023/06/29 11:20:16;;;;;;;1.70;0.73;;;31.60;43.60;;;;;;5038048;28;20040;-87
2023/06/29 11:22:43;;;;;;;1.05;0.77;;;31.90;43.50;;;;;;5024105;28;20541;-86
2023/06/29 11:25:16;;;;;;;1.08;0.63;;;32.20;43.20;;;;;;5043296;28;20087;-84
2023/06/29 11:27:42;;;;;;;;;;;32.70;43.10;;;;;;5052004;28;20069;-86
2023/06/29 11:30:09;;;;;;;1.42;0.50;;;33.00;42.50;;;;;;5051395;28;19962;-84
2023/06/29 11:32:40;;;;;;;0.95;0.50;;;33.10;42.40;;;;;;5048474;28;20054;-85
2023/06/29 11:35:09;;;;;;;0.82;0.68;;;33.10;42.20;;;;;;5047365;28;20033;-85
2023/06/29 11:37:37;;;;;;;2.25;0.75;;;33.10;42.10;;;;;;5036623;28;20040;-84
2023/06/29 11:40:07;;;;;;;1.23;0.70;;;33.20;42.10;;;;;;5054131;28;20028;-85
2023/06/29 11:42:36;;;;;;;4.05;0.75;;;33.40;41.90;;;;;;5013521;28;20052;-85
2023/06/29 11:45:04;;;;;;;0.65;0.60;;;33.70;41.60;;;;;;5021608;28;20040;-85
2023/06/29 11:47:30;;;;;;;0.85;0.52;;;33.80;41.60;;;;;;5048490;28;20110;-86
2023/06/29 11:50:00;;;;;;;1.55;0.47;;;33.70;41.60;;;;;;5034863;28;20566;-84
2023/06/29 11:52:30;;;;;;;1.15;0.77;;;33.60;41.70;;;;;;5055369;28;20135;-86
2023/06/29 11:55:00;;;;;;;1.15;0.73;;;33.40;41.80;;;;;;5031714;28;20029;-85
2023/06/29 11:57:30;;;;;;;1.92;0.50;;;33.30;42.00;;;;;;5052798;28;20425;-83
2023/06/29 12:00:00;;;;;;;0.82;0.70;;;33.10;42.10;;;;;;5048798;28;20033;-83
2023/06/29 12:02:27;;;;;;;1.92;0.80;;;33.00;42.30;;;;;;5053946;28;20053;-88
2023/06/29 12:05:03;;;;;;;1.77;0.73;;;32.90;42.40;;;;;;5034153;28;20033;-84
2023/06/29 12:07:43;;;;;;;3.08;0.60;;;32.80;42.30;;;;;;5049481;28;20107;-85
2023/06/29 12:10:21;;;;;;;2.05;0.75;;;32.80;42.30;;;;;;5039934;28;20028;-82
2023/06/29 12:12:55;;;;;;;1.85;0.70;;;32.70;42.40;;;;;;5053998;28;20086;-83
2023/06/29 12:15:31;;;;;;;1.65;0.90;;;32.60;42.50;;;;;;5046021;28;20421;-82
2023/06/29 12:18:11;;;;;;;1.25;0.60;;;32.60;42.60;;;;;;5045149;28;20104;-84
2023/06/29 12:20:42;;;;;;;1.08;0.77;;;32.40;42.50;;;;;;5045776;28;20063;-82
2023/06/29 12:23:13;;;;;;;1.00;0.70;;;32.40;42.80;;;;;;5040977;28;20045;-82
2023/06/29 12:25:44;;;;;;;2.97;1.05;;;32.40;42.70;;;;;;5046814;28;20036;-81
2023/06/29 12:28:10;;;;;;;0.70;0.70;;;32.60;42.60;;;;;;5044146;28;20032;-82
2023/06/29 12:30:36;;;;;;;1.10;0.77;;;32.90;42.20;;;;;;5043425;28;20040;-84
2023/06/29 12:33:02;;;;;;;2.47;0.80;;;33.00;41.90;;;;;;5036462;28;20056;-82
2023/06/29 12:35:32;;;;;;;3.03;1.02;;;33.10;41.90;;;;;;5035431;28;20041;-83
2023/06/29 12:37:58;;;;;;;2.00;0.70;;;33.10;41.60;;;;;;5043610;28;20567;-81
2023/06/29 12:40:24;;;;;;;1.20;0.60;;;33.10;41.60;;;;;;5020037;28;20041;-86
2023/06/29 12:43:00;;;;;;;1.70;1.27;;;33.30;41.60;;;;;;5048087;28;20119;-83
2023/06/29 12:45:27;;;;;;;1.65;0.90;;;33.60;41.40;;;;;;5037597;28;20385;-83
2023/06/29 12:47:54;;;;;;;4.47;0.98;;;33.80;41.00;;;;;;5051946;28;20392;-83
2023/06/29 12:50:22;;;;;;;2.08;0.73;;;33.90;40.90;;;;;;5045057;28;20044;-83
2023/06/29 12:52:49;;;;;;;1.08;0.85;;;34.00;40.80;;;;;;5038826;28;20036;-83